createdAt,value
2023-01-19T00:00:29.300Z,19.87
2023-01-19T00:02:56.347Z,19.85
2023-01-19T00:05:22.888Z,19.83
2023-01-19T00:07:49.421Z,19.83
2023-01-19T00:10:16.311Z,19.78
2023-01-19T00:12:42.936Z,19.76
2023-01-19T00:15:10.038Z,19.75
2023-01-19T00:17:36.601Z,19.71
2023-01-19T00:20:04.014Z,19.69
2023-01-19T00:22:30.658Z,19.65
2023-01-19T00:24:57.453Z,19.64
2023-01-19T00:27:24.923Z,19.63
2023-01-19T00:29:51.531Z,19.59
2023-01-19T00:32:18.101Z,19.58
2023-01-19T00:34:49.486Z,19.56
2023-01-19T00:37:17.368Z,19.53
2023-01-19T00:39:44.962Z,19.51
2023-01-19T00:42:31.492Z,19.48
2023-01-19T00:44:58.233Z,19.47
2023-01-19T00:47:25.132Z,19.45
2023-01-19T00:49:51.581Z,19.43
2023-01-19T00:52:18.044Z,19.40
2023-01-19T00:54:44.492Z,19.38
2023-01-19T00:57:11.174Z,19.36
2023-01-19T00:59:37.662Z,19.36
2023-01-19T01:02:04.570Z,19.33
2023-01-19T01:04:31.244Z,19.30
2023-01-19T01:06:57.762Z,19.30
2023-01-19T01:09:24.493Z,19.26
2023-01-19T01:11:51.000Z,19.25
2023-01-19T01:14:18.262Z,19.24
2023-01-19T01:16:45.093Z,19.21
2023-01-19T01:19:11.652Z,19.19
2023-01-19T01:21:38.146Z,19.14
2023-01-19T01:24:05.125Z,19.15
2023-01-19T01:26:31.805Z,19.14
2023-01-19T01:28:58.308Z,19.12
2023-01-19T01:31:25.088Z,19.09
2023-01-19T01:33:51.601Z,19.08
2023-01-19T01:36:19.064Z,19.06
2023-01-19T01:38:45.615Z,19.06
2023-01-19T01:41:12.489Z,19.05
2023-01-19T01:44:25.370Z,19.01
2023-01-19T01:46:52.108Z,19.01
2023-01-19T01:49:18.745Z,18.98
2023-01-19T01:51:49.802Z,18.98
2023-01-19T01:54:23.405Z,18.95
2023-01-19T01:56:52.649Z,18.94
2023-01-19T01:59:30.191Z,18.91
2023-01-19T02:02:18.506Z,18.91
2023-01-19T02:04:59.803Z,18.89
2023-01-19T02:08:00.539Z,18.87
2023-01-19T02:10:46.003Z,18.84
2023-01-19T02:13:22.620Z,18.82
2023-01-19T02:15:52.551Z,18.82
2023-01-19T02:18:21.530Z,18.79
2023-01-19T02:20:56.463Z,18.77
2023-01-19T02:23:46.658Z,18.76
2023-01-19T02:26:16.990Z,18.75
2023-01-19T02:28:48.332Z,18.72
2023-01-19T02:31:15.284Z,18.73
2023-01-19T02:33:42.161Z,18.71
2023-01-19T02:36:11.595Z,18.69
2023-01-19T02:38:39.280Z,18.68
2023-01-19T02:41:07.982Z,18.68
2023-01-19T02:43:36.166Z,18.65
2023-01-19T02:46:03.401Z,18.64
2023-01-19T02:48:30.527Z,18.64
2023-01-19T02:51:04.157Z,18.62
2023-01-19T02:53:33.314Z,18.64
2023-01-19T02:56:27.536Z,18.60
2023-01-19T02:59:16.164Z,18.58
2023-01-19T03:01:51.832Z,18.56
2023-01-19T03:04:28.999Z,18.55
2023-01-19T03:06:59.807Z,18.53
2023-01-19T03:09:41.365Z,18.51
2023-01-19T03:12:43.745Z,18.50
2023-01-19T03:15:30.667Z,18.49
2023-01-19T03:18:00.175Z,18.46
2023-01-19T03:20:28.912Z,18.46
2023-01-19T03:23:02.983Z,18.46
2023-01-19T03:25:34.503Z,18.43
2023-01-19T03:28:02.401Z,18.42
2023-01-19T03:30:35.143Z,18.42
2023-01-19T03:33:09.508Z,18.40
2023-01-19T03:35:41.694Z,18.40
2023-01-19T03:38:14.675Z,18.39
2023-01-19T03:40:41.693Z,18.37
2023-01-19T03:43:08.831Z,18.36
2023-01-19T03:45:39.134Z,18.34
2023-01-19T03:48:06.652Z,18.32
2023-01-19T03:50:33.439Z,18.30
2023-01-19T03:53:10.747Z,18.28
2023-01-19T03:55:40.605Z,18.28
2023-01-19T03:58:07.323Z,18.27
2023-01-19T04:00:36.563Z,18.25
2023-01-19T04:03:05.260Z,18.25
2023-01-19T04:05:32.041Z,18.25
2023-01-19T04:07:58.885Z,18.23
2023-01-19T04:10:25.480Z,18.22
2023-01-19T04:12:58.903Z,18.21
2023-01-19T04:15:26.462Z,18.21
2023-01-19T04:17:53.068Z,18.19
2023-01-19T04:20:20.079Z,18.16
2023-01-19T04:22:46.688Z,18.17
2023-01-19T04:25:13.158Z,18.16
2023-01-19T04:27:39.709Z,18.15
2023-01-19T04:30:06.903Z,18.15
2023-01-19T04:32:33.442Z,18.13
2023-01-19T04:34:59.927Z,18.12
2023-01-19T04:37:26.473Z,18.11
2023-01-19T04:39:53.048Z,18.10
2023-01-19T04:42:19.710Z,18.11
2023-01-19T04:44:46.742Z,18.08
2023-01-19T04:47:13.279Z,18.05
2023-01-19T04:49:40.216Z,18.07
2023-01-19T04:52:06.821Z,18.04
2023-01-19T04:54:33.495Z,18.02
2023-01-19T04:57:00.235Z,18.02
2023-01-19T04:59:26.698Z,18.00
2023-01-19T05:01:53.342Z,18.00
2023-01-19T05:04:19.847Z,17.99
2023-01-19T05:06:46.464Z,17.98
2023-01-19T05:09:15.186Z,17.98
2023-01-19T05:11:41.675Z,17.97
2023-01-19T05:14:08.196Z,17.96
2023-01-19T05:16:35.322Z,17.95
2023-01-19T05:19:01.787Z,17.94
2023-01-19T05:21:28.459Z,17.92
2023-01-19T05:23:54.953Z,17.91
2023-01-19T05:26:21.462Z,17.91
2023-01-19T05:28:47.950Z,17.89
2023-01-19T05:31:14.489Z,17.88
2023-01-19T05:33:41.292Z,17.86
2023-01-19T05:36:07.941Z,17.85
2023-01-19T05:38:35.639Z,17.85
2023-01-19T05:41:02.735Z,17.83
2023-01-19T05:43:29.379Z,17.83
2023-01-19T05:45:56.085Z,17.82
2023-01-19T05:48:23.878Z,17.80
2023-01-19T05:50:50.380Z,17.81
2023-01-19T05:53:17.336Z,17.79
2023-01-19T05:55:44.534Z,17.79
2023-01-19T05:58:11.063Z,17.79
2023-01-19T06:00:37.570Z,17.81
2023-01-19T06:03:06.411Z,17.86
2023-01-19T06:05:33.028Z,17.93
2023-01-19T06:07:59.742Z,18.01
2023-01-19T06:10:26.291Z,18.10
2023-01-19T06:12:53.207Z,18.19
2023-01-19T06:15:19.918Z,18.30
2023-01-19T06:17:46.467Z,18.40
2023-01-19T06:20:14.139Z,18.51
2023-01-19T06:22:40.682Z,18.60
2023-01-19T06:25:07.621Z,18.70
2023-01-19T06:27:34.101Z,18.80
2023-01-19T06:30:00.601Z,18.89
2023-01-19T06:32:27.242Z,18.96
2023-01-19T06:34:54.217Z,19.06
2023-01-19T06:37:20.970Z,19.16
2023-01-19T06:39:47.568Z,19.23
2023-01-19T06:42:14.366Z,19.31
2023-01-19T06:44:47.319Z,19.41
2023-01-19T06:47:14.469Z,19.49
2023-01-19T06:49:42.857Z,19.57
2023-01-19T06:52:11.442Z,19.66
2023-01-19T06:54:38.261Z,19.72
2023-01-19T06:57:04.796Z,19.79
2023-01-19T06:59:31.927Z,19.85
2023-01-19T07:01:59.224Z,19.91
2023-01-19T07:04:27.029Z,19.98
2023-01-19T07:06:53.632Z,20.04
2023-01-19T07:09:20.473Z,20.11
2023-01-19T07:11:48.422Z,20.17
2023-01-19T07:14:15.608Z,20.22
2023-01-19T07:16:42.849Z,20.27
2023-01-19T07:19:10.831Z,20.33
2023-01-19T07:21:37.540Z,20.37
2023-01-19T07:24:04.077Z,20.41
2023-01-19T07:26:30.892Z,20.46
2023-01-19T07:28:57.417Z,20.50
2023-01-19T07:31:24.304Z,20.52
2023-01-19T07:33:51.027Z,20.56
2023-01-19T07:36:17.682Z,20.59
2023-01-19T07:38:44.189Z,20.62
2023-01-19T07:41:11.177Z,20.64
2023-01-19T07:43:37.791Z,20.66
2023-01-19T07:46:08.304Z,20.69
2023-01-19T07:48:34.968Z,20.70
2023-01-19T07:51:11.093Z,20.74
2023-01-19T07:53:39.973Z,20.75
2023-01-19T07:56:07.692Z,20.76
2023-01-19T07:58:34.253Z,20.77
2023-01-19T08:01:00.806Z,20.80
2023-01-19T08:03:27.330Z,20.80
2023-01-19T08:05:53.874Z,20.80
2023-01-19T08:08:20.451Z,20.82
2023-01-19T08:10:50.411Z,20.82
2023-01-19T08:13:16.982Z,20.82
2023-01-19T08:15:43.521Z,20.83
2023-01-19T08:18:11.499Z,20.84
2023-01-19T08:20:38.054Z,20.86
2023-01-19T08:23:05.437Z,20.85
2023-01-19T08:25:34.203Z,20.87
2023-01-19T08:28:01.484Z,20.87
2023-01-19T08:30:28.278Z,20.86
2023-01-19T08:32:57.981Z,20.88
2023-01-19T08:35:24.584Z,20.88
2023-01-19T08:37:51.193Z,20.89
2023-01-19T08:40:18.415Z,20.90
2023-01-19T08:42:45.403Z,20.90
2023-01-19T08:45:12.227Z,20.90
2023-01-19T08:47:38.787Z,20.90
2023-01-19T08:50:05.594Z,20.92
2023-01-19T08:52:32.060Z,20.93
2023-01-19T08:54:58.524Z,20.94
2023-01-19T08:57:25.079Z,20.94
2023-01-19T08:59:51.601Z,20.94
2023-01-19T09:02:18.214Z,20.96
2023-01-19T09:04:44.684Z,20.97
2023-01-19T09:07:11.175Z,20.96
2023-01-19T09:09:39.684Z,20.98
2023-01-19T09:12:06.271Z,20.98
2023-01-19T09:14:32.786Z,21.01
2023-01-19T09:16:59.419Z,21.01
2023-01-19T09:19:26.200Z,21.02
2023-01-19T09:21:54.787Z,21.02
2023-01-19T09:24:21.309Z,21.01
2023-01-19T09:26:47.953Z,21.02
2023-01-19T09:29:14.397Z,21.01
2023-01-19T09:31:41.133Z,21.02
2023-01-19T09:34:07.925Z,21.01
2023-01-19T09:36:36.617Z,21.00
2023-01-19T09:39:03.910Z,21.01
2023-01-19T09:41:33.817Z,21.01
2023-01-19T09:44:01.051Z,21.00
2023-01-19T09:46:37.397Z,21.00
2023-01-19T09:49:17.816Z,21.00
2023-01-19T09:51:48.355Z,21.00
2023-01-19T09:54:39.170Z,21.00
2023-01-19T09:57:11.081Z,21.01
2023-01-19T09:59:38.851Z,21.01
2023-01-19T10:02:11.554Z,21.00
2023-01-19T10:04:41.679Z,21.01
2023-01-19T10:07:23.414Z,21.00
2023-01-19T10:10:01.479Z,21.00
2023-01-19T10:12:41.497Z,20.99
2023-01-19T10:15:35.528Z,21.01
2023-01-19T10:18:07.777Z,21.03
2023-01-19T10:20:47.009Z,21.02
2023-01-19T10:23:48.646Z,21.02
2023-01-19T10:26:27.087Z,21.04
2023-01-19T10:28:57.747Z,21.04
2023-01-19T10:31:25.024Z,21.03
2023-01-19T10:33:52.755Z,21.02
2023-01-19T10:36:25.860Z,21.04
2023-01-19T10:38:52.412Z,21.04
2023-01-19T10:41:31.774Z,21.05
2023-01-19T10:44:03.547Z,21.05
2023-01-19T10:46:43.376Z,21.05
2023-01-19T10:49:26.676Z,21.06
2023-01-19T10:51:54.821Z,21.07
2023-01-19T10:54:22.184Z,21.07
2023-01-19T10:56:57.855Z,21.07
2023-01-19T10:59:46.676Z,21.06
2023-01-19T11:02:19.423Z,21.06
2023-01-19T11:04:48.936Z,21.06
2023-01-19T11:07:20.756Z,21.08
2023-01-19T11:09:48.572Z,21.06
2023-01-19T11:12:23.768Z,21.06
2023-01-19T11:14:51.749Z,21.06
2023-01-19T11:17:25.386Z,21.07
2023-01-19T11:20:02.846Z,21.06
2023-01-19T11:22:33.099Z,21.06
2023-01-19T11:25:04.902Z,21.07
2023-01-19T11:27:36.189Z,21.06
2023-01-19T11:30:19.314Z,21.07
2023-01-19T11:32:46.293Z,21.08
2023-01-19T11:35:33.187Z,21.09
2023-01-19T11:38:11.835Z,21.10
2023-01-19T11:40:39.083Z,21.09
2023-01-19T11:43:05.853Z,21.09
2023-01-19T11:45:34.731Z,21.10
2023-01-19T11:48:04.701Z,21.09
2023-01-19T11:50:57.526Z,21.08
2023-01-19T11:53:29.130Z,21.08
2023-01-19T11:55:59.566Z,21.07
2023-01-19T11:58:26.833Z,21.05
2023-01-19T12:01:24.756Z,21.05
2023-01-19T12:04:06.674Z,21.03
2023-01-19T12:06:35.742Z,21.04
2023-01-19T12:09:13.134Z,21.01
2023-01-19T12:12:04.018Z,21.00
2023-01-19T12:14:40.920Z,20.99
2023-01-19T12:17:15.289Z,20.97
2023-01-19T12:19:54.966Z,20.97
2023-01-19T12:22:23.795Z,20.95
2023-01-19T12:24:54.331Z,20.94
2023-01-19T12:27:38.863Z,20.91
2023-01-19T12:30:10.609Z,20.90
2023-01-19T12:32:37.420Z,20.88
2023-01-19T12:35:04.985Z,20.89
2023-01-19T12:37:36.595Z,20.88
2023-01-19T12:40:24.972Z,20.86
2023-01-19T12:42:56.213Z,20.88
2023-01-19T12:45:25.715Z,20.88
2023-01-19T12:47:56.208Z,20.87
2023-01-19T12:50:25.801Z,20.89
2023-01-19T12:53:02.630Z,20.90
2023-01-19T12:55:39.119Z,20.90
2023-01-19T12:58:12.806Z,20.91
2023-01-19T13:00:44.701Z,20.92
2023-01-19T13:03:16.924Z,20.94
2023-01-19T13:05:43.444Z,20.95
2023-01-19T13:08:09.859Z,20.94
2023-01-19T13:11:05.016Z,20.93
2023-01-19T13:13:57.692Z,20.96
2023-01-19T13:16:51.004Z,20.95
2023-01-19T13:19:22.102Z,20.95
2023-01-19T13:21:49.609Z,20.97
2023-01-19T13:24:20.851Z,20.97
2023-01-19T13:26:50.291Z,20.98
2023-01-19T13:29:37.945Z,20.98
2023-01-19T13:32:18.399Z,20.97
2023-01-19T13:34:50.389Z,20.96
2023-01-19T13:37:23.123Z,20.98
2023-01-19T13:39:53.377Z,20.97
2023-01-19T13:42:29.297Z,21.00
2023-01-19T13:44:59.871Z,20.97
2023-01-19T13:47:39.728Z,20.97
2023-01-19T13:50:07.004Z,20.96
2023-01-19T13:52:33.518Z,20.99
2023-01-19T13:55:03.605Z,20.98
2023-01-19T13:57:40.026Z,21.00
2023-01-19T14:00:11.839Z,21.00
2023-01-19T14:02:39.741Z,21.00
2023-01-19T14:05:37.584Z,20.99
2023-01-19T14:08:13.316Z,21.00
2023-01-19T14:10:42.270Z,20.99
2023-01-19T14:13:19.790Z,21.00
2023-01-19T14:15:48.895Z,21.00
2023-01-19T14:18:18.373Z,21.01
2023-01-19T14:21:00.987Z,21.01
2023-01-19T14:23:47.810Z,20.98
2023-01-19T14:26:41.856Z,20.96
2023-01-19T14:29:23.829Z,20.94
2023-01-19T14:32:05.477Z,20.90
2023-01-19T14:34:39.317Z,20.87
2023-01-19T14:37:18.639Z,20.83
2023-01-19T14:39:50.720Z,20.82
2023-01-19T14:42:22.119Z,20.81
2023-01-19T14:44:51.405Z,20.82
2023-01-19T14:47:27.781Z,20.83
2023-01-19T14:49:56.364Z,20.82
2023-01-19T14:52:33.764Z,20.84
2023-01-19T14:55:03.764Z,20.84
2023-01-19T14:57:30.301Z,20.85
2023-01-19T14:59:56.810Z,20.87
2023-01-19T15:02:23.515Z,20.87
2023-01-19T15:04:53.874Z,20.88
2023-01-19T15:07:23.701Z,20.90
2023-01-19T15:09:50.681Z,20.91
2023-01-19T15:12:18.437Z,20.95
2023-01-19T15:14:45.826Z,20.95
2023-01-19T15:17:26.682Z,20.96
2023-01-19T15:19:54.722Z,21.00
2023-01-19T15:22:25.048Z,21.00
2023-01-19T15:24:51.685Z,21.02
2023-01-19T15:27:18.298Z,21.01
2023-01-19T15:29:46.033Z,21.04
2023-01-19T15:32:14.204Z,21.05
2023-01-19T15:34:41.491Z,21.07
2023-01-19T15:37:08.415Z,21.06
2023-01-19T15:39:35.214Z,21.07
2023-01-19T15:42:01.966Z,21.08
2023-01-19T15:44:29.275Z,21.09
2023-01-19T15:46:57.385Z,21.10
2023-01-19T15:49:23.880Z,21.10
2023-01-19T15:51:50.434Z,21.10
2023-01-19T15:54:18.505Z,21.11
2023-01-19T15:56:45.028Z,21.10
2023-01-19T15:59:11.532Z,21.10
2023-01-19T16:01:40.047Z,21.10
2023-01-19T16:04:07.947Z,21.10
2023-01-19T16:06:34.629Z,21.10
2023-01-19T16:09:01.614Z,21.09
2023-01-19T16:11:33.651Z,21.08
2023-01-19T16:14:00.941Z,21.08
2023-01-19T16:16:28.267Z,21.08
2023-01-19T16:18:55.375Z,21.08
2023-01-19T16:21:22.500Z,21.07
2023-01-19T16:23:49.008Z,21.07
2023-01-19T16:26:34.404Z,21.08
2023-01-19T16:29:07.903Z,21.06
2023-01-19T16:31:34.897Z,21.08
2023-01-19T16:34:01.808Z,21.06
2023-01-19T16:36:30.639Z,21.07
2023-01-19T16:39:02.677Z,21.06
2023-01-19T16:41:29.403Z,21.06
2023-01-19T16:43:57.676Z,21.06
2023-01-19T16:46:26.727Z,21.07
2023-01-19T16:48:58.235Z,21.05
2023-01-19T16:51:24.955Z,21.07
2023-01-19T16:53:51.527Z,21.05
2023-01-19T16:56:18.219Z,21.05
2023-01-19T16:58:45.118Z,21.04
2023-01-19T17:01:19.803Z,21.05
2023-01-19T17:03:46.960Z,21.05
2023-01-19T17:06:15.621Z,21.06
2023-01-19T17:08:42.162Z,21.05
2023-01-19T17:11:14.395Z,21.05
2023-01-19T17:13:41.072Z,21.05
2023-01-19T17:16:07.996Z,21.06
2023-01-19T17:18:35.857Z,21.06
2023-01-19T17:21:08.475Z,21.06
2023-01-19T17:23:42.182Z,21.06
2023-01-19T17:26:08.907Z,21.06
2023-01-19T17:28:35.458Z,21.06
2023-01-19T17:31:12.310Z,21.06
2023-01-19T17:33:39.634Z,21.06
2023-01-19T17:36:09.060Z,21.05
2023-01-19T17:38:36.367Z,21.07
2023-01-19T17:41:11.279Z,21.09
2023-01-19T17:43:37.815Z,21.08
2023-01-19T17:46:04.553Z,21.07
2023-01-19T17:48:31.002Z,21.09
2023-01-19T17:51:05.679Z,21.09
2023-01-19T17:53:33.346Z,21.10
2023-01-19T17:56:11.871Z,21.09
2023-01-19T17:58:39.618Z,21.10
2023-01-19T18:01:10.458Z,21.12
2023-01-19T18:03:37.369Z,21.10
2023-01-19T18:06:04.043Z,21.10
2023-01-19T18:08:30.708Z,21.11
2023-01-19T18:10:58.865Z,21.11
2023-01-19T18:13:26.200Z,21.11
2023-01-19T18:15:57.874Z,21.10
2023-01-19T18:18:24.407Z,21.09
2023-01-19T18:20:50.933Z,21.10
2023-01-19T18:23:17.479Z,21.09
2023-01-19T18:25:43.961Z,21.09
2023-01-19T18:28:10.603Z,21.09
2023-01-19T18:30:40.250Z,21.10
2023-01-19T18:33:06.746Z,21.10
2023-01-19T18:35:33.329Z,21.09
2023-01-19T18:37:59.748Z,21.09
2023-01-19T18:40:26.470Z,21.08
2023-01-19T18:42:52.972Z,21.11
2023-01-19T18:45:19.420Z,21.13
2023-01-19T18:47:45.933Z,21.10
2023-01-19T18:50:14.281Z,21.12
2023-01-19T18:52:40.952Z,21.12
2023-01-19T18:55:08.081Z,21.10
2023-01-19T18:57:35.682Z,21.12
2023-01-19T19:00:03.544Z,21.14
2023-01-19T19:02:30.162Z,21.14
2023-01-19T19:04:56.607Z,21.12
2023-01-19T19:07:23.114Z,21.13
2023-01-19T19:09:49.614Z,21.14
2023-01-19T19:12:16.193Z,21.13
2023-01-19T19:14:42.738Z,21.14
2023-01-19T19:17:09.196Z,21.14
2023-01-19T19:19:35.820Z,21.12
2023-01-19T19:22:02.281Z,21.15
2023-01-19T19:24:28.897Z,21.14
2023-01-19T19:26:55.671Z,21.13
2023-01-19T19:29:22.242Z,21.15
2023-01-19T19:31:48.736Z,21.14
2023-01-19T19:34:15.285Z,21.14
2023-01-19T19:36:42.113Z,21.14
2023-01-19T19:39:08.680Z,21.13
2023-01-19T19:41:37.236Z,21.15
2023-01-19T19:44:03.758Z,21.15
2023-01-19T19:46:30.576Z,21.14
2023-01-19T19:48:57.254Z,21.14
2023-01-19T19:51:27.151Z,21.14
2023-01-19T19:53:58.951Z,21.13
2023-01-19T19:56:27.938Z,21.14
2023-01-19T19:58:55.775Z,21.14
2023-01-19T20:01:27.305Z,21.14
2023-01-19T20:03:56.068Z,21.15
2023-01-19T20:06:25.505Z,21.14
2023-01-19T20:08:54.308Z,21.13
2023-01-19T20:11:28.071Z,21.14
2023-01-19T20:13:54.726Z,21.13
2023-01-19T20:16:23.222Z,21.15
2023-01-19T20:18:54.003Z,21.14
2023-01-19T20:21:26.563Z,21.16
2023-01-19T20:23:54.308Z,21.15
2023-01-19T20:26:25.190Z,21.15
2023-01-19T20:28:52.272Z,21.16
2023-01-19T20:31:22.019Z,21.15
2023-01-19T20:33:50.715Z,21.14
2023-01-19T20:36:18.033Z,21.16
2023-01-19T20:38:44.778Z,21.17
2023-01-19T20:41:12.715Z,21.18
2023-01-19T20:43:39.667Z,21.16
2023-01-19T20:46:06.419Z,21.16
2023-01-19T20:48:33.240Z,21.16
2023-01-19T20:51:01.707Z,21.17
2023-01-19T20:53:29.289Z,21.17
2023-01-19T20:55:55.786Z,21.17
2023-01-19T20:58:23.384Z,21.17
2023-01-19T21:00:50.543Z,21.16
2023-01-19T21:03:17.265Z,21.17
2023-01-19T21:05:46.994Z,21.17
2023-01-19T21:08:14.768Z,21.17
2023-01-19T21:10:42.301Z,21.16
2023-01-19T21:13:09.130Z,21.16
2023-01-19T21:15:35.613Z,21.16
2023-01-19T21:18:02.436Z,21.16
2023-01-19T21:20:32.951Z,21.16
2023-01-19T21:22:59.469Z,21.16
2023-01-19T21:25:25.939Z,21.16
2023-01-19T21:27:52.492Z,21.17
2023-01-19T21:30:19.088Z,21.15
2023-01-19T21:32:45.734Z,21.14
2023-01-19T21:35:12.491Z,21.15
2023-01-19T21:37:39.175Z,21.16
2023-01-19T21:40:06.449Z,21.15
2023-01-19T21:42:32.898Z,21.16
2023-01-19T21:44:59.359Z,21.16
2023-01-19T21:47:25.857Z,21.17
2023-01-19T21:49:52.357Z,21.16
2023-01-19T21:52:18.909Z,21.16
2023-01-19T21:54:45.381Z,21.17
2023-01-19T21:57:15.076Z,21.17
2023-01-19T21:59:41.676Z,21.18
2023-01-19T22:02:11.175Z,21.19
2023-01-19T22:04:37.864Z,21.19
2023-01-19T22:07:04.413Z,21.20
2023-01-19T22:09:34.186Z,21.18
2023-01-19T22:12:01.416Z,21.20
2023-01-19T22:14:28.049Z,21.21
2023-01-19T22:16:54.735Z,21.19
2023-01-19T22:19:21.303Z,21.19
2023-01-19T22:21:47.878Z,21.19
2023-01-19T22:24:14.370Z,21.19
2023-01-19T22:26:40.857Z,21.18
2023-01-19T22:29:11.271Z,21.16
2023-01-19T22:31:39.040Z,21.13
2023-01-19T22:34:10.129Z,21.11
2023-01-19T22:36:37.627Z,21.07
2023-01-19T22:39:13.669Z,20.98
2023-01-19T22:41:43.425Z,20.94
2023-01-19T22:44:13.808Z,20.89
2023-01-19T22:46:40.433Z,20.83
2023-01-19T22:49:08.611Z,20.77
2023-01-19T22:51:36.034Z,20.71
2023-01-19T22:54:03.128Z,20.64
2023-01-19T22:56:31.711Z,20.58
2023-01-19T22:58:58.957Z,20.53
2023-01-19T23:01:28.656Z,20.48
2023-01-19T23:03:55.474Z,20.42
2023-01-19T23:06:27.867Z,20.37
2023-01-19T23:08:56.387Z,20.31
2023-01-19T23:11:25.968Z,20.26
2023-01-19T23:13:52.915Z,20.20
2023-01-19T23:16:20.249Z,20.12
2023-01-19T23:18:47.571Z,20.01
2023-01-19T23:21:17.378Z,19.96
2023-01-19T23:23:44.673Z,19.92
2023-01-19T23:26:19.730Z,19.85
2023-01-19T23:28:47.305Z,19.82
2023-01-19T23:31:31.359Z,19.77
2023-01-19T23:34:09.119Z,19.74
2023-01-19T23:36:37.449Z,19.69
2023-01-19T23:39:19.029Z,19.65
2023-01-19T23:41:46.043Z,19.61
2023-01-19T23:44:13.337Z,19.58
2023-01-19T23:46:40.130Z,19.54
2023-01-19T23:49:06.698Z,19.51
2023-01-19T23:51:33.950Z,19.47
2023-01-19T23:54:01.027Z,19.45
2023-01-19T23:56:31.006Z,19.41
2023-01-19T23:59:01.085Z,19.38
